Sundial — WDC5838 — position and weather

sailwx.info

Track history (hours):
 
Tides and Currents Weather Stations Pressure Air Temp Water Temp Dewpoint Dewpoint Depression Visibility Wind Speed Wind Dir Waves Ship Positions

Sundial

Owner: Tidewater barge Lines Inc., Vancouver, WA. More information available from US FCC via Universal Licensing System and Coast Guard Vessel Documentation Center.

Last reported at 2017-Dec-09 21:09 UTC. Time now 2017-Dec-14 06:23 UTC.
Position N 45°37' W 122°01'.

Length 31 m; draft 3.5 m.

Type: Towing. MMSI: 367047180.

Date/timePositionNaut miles runAvg speedWind from/ knotsBaromVisibWave heightAir tempDewpointWater temp
2017-Dec-09 21:09N 45°37' W 122°01'1 3.2
2017-Dec-09 20:57N 45°37' W 122°02'3 6.3
2017-Dec-09 20:30N 45°35' W 122°05'3 5.9
2017-Dec-09 20:00N 45°35' W 122°09'3 5.8
2017-Dec-09 19:31N 45°34' W 122°13'3 5.6
2017-Dec-09 18:58N 45°33' W 122°17'2 5.2
2017-Dec-09 18:31N 45°33' W 122°20'2 4.9
2017-Dec-09 18:00N 45°34' W 122°24'2 4.3
2017-Dec-09 17:30N 45°34' W 122°26'2 4.5
2017-Dec-09 17:01N 45°35' W 122°29'3 5.7
2017-Dec-09 16:31N 45°36' W 122°33'3 6.0
2017-Dec-09 16:00N 45°36' W 122°37'3 6.1
2017-Dec-09 15:30N 45°38' W 122°41'3 5.6
2017-Dec-09 15:00N 45°39' W 122°45'0 0.5
2017-Dec-09 14:26N 45°39' W 122°44'0 0.0
2017-Dec-09 13:54N 45°39' W 122°44'0 0.0
2017-Dec-09 13:30N 45°39' W 122°44'1 1.9
2017-Dec-09 13:00N 45°38' W 122°43'0 0.9
2017-Dec-09 12:30N 45°38' W 122°43'3 6.0
2017-Dec-09 12:00N 45°37' W 122°39'4 7.5
2017-Dec-09 11:31N 45°36' W 122°34'4 7.4
2017-Dec-09 11:01N 45°35' W 122°29'4 7.0
2017-Dec-09 10:30N 45°34' W 122°24'4 7.2
2017-Dec-09 10:00N 45°33' W 122°19'4 7.2
2017-Dec-09 09:29N 45°33' W 122°14'3 7.2
2017-Dec-09 09:01N 45°35' W 122°09'3 6.8
2017-Dec-09 08:30N 45°36' W 122°05'  
2017-Dec-04 10:28N 45°35' W 122°28'2 5.4
2017-Dec-04 10:01N 45°35' W 122°31'3 5.4
2017-Dec-04 09:30N 45°36' W 122°35'3 5.6
2017-Dec-04 09:01N 45°37' W 122°39'3 5.6
2017-Dec-04 08:31N 45°38' W 122°42'2 3.5
2017-Dec-04 07:58N 45°39' W 122°45'1 1.7
2017-Dec-04 07:30N 45°39' W 122°46'1 1.7
2017-Dec-04 07:00N 45°38' W 122°46'0 0.0
2017-Dec-04 06:30N 45°38' W 122°46'1 2.9
2017-Dec-04 06:00N 45°39' W 122°44'0 0.0
2017-Dec-04 05:31N 45°39' W 122°44'0 0.0
2017-Dec-04 04:57N 45°39' W 122°44'0 0.0
2017-Dec-04 04:30N 45°39' W 122°44'0 0.0
2017-Dec-04 04:00N 45°39' W 122°44'0 0.0
2017-Dec-04 03:31N 45°39' W 122°44'0 0.0
2017-Dec-04 03:00N 45°39' W 122°44'0 0.0
2017-Dec-04 02:30N 45°39' W 122°44'0 0.0
2017-Dec-04 02:00N 45°39' W 122°44'0 0.0
2017-Dec-04 01:31N 45°39' W 122°44'0 0.0
2017-Dec-04 01:00N 45°39' W 122°44'0 0.4
2017-Dec-04 00:30N 45°39' W 122°45'0 0.8
2017-Dec-04 00:00N 45°39' W 122°45'1 2.2
2017-Dec-03 23:30N 45°39' W 122°46'0 0.1
2017-Dec-03 23:00N 45°38' W 122°46'0 0.1
2017-Dec-03 22:28N 45°38' W 122°46'0 0.0
2017-Dec-03 22:00N 45°38' W 122°46'1 1.1
2017-Dec-03 21:30N 45°39' W 122°46'1 2.4
2017-Dec-03 21:00N 45°39' W 122°44'0 0.0
2017-Dec-03 20:30N 45°39' W 122°44'0 0.0
2017-Dec-03 20:00N 45°39' W 122°44'0 0.0
2017-Dec-03 19:30N 45°39' W 122°44'0 0.0
2017-Dec-03 19:00N 45°39' W 122°44'1 1.9
2017-Dec-03 18:31N 45°39' W 122°45'0 0.1
2017-Dec-03 18:01N 45°39' W 122°45'1 2.3
2017-Dec-03 17:30N 45°39' W 122°44'3 6.9
2017-Dec-03 17:00N 45°37' W 122°40'3 6.2
2017-Dec-03 16:30N 45°36' W 122°36'4 7.1
2017-Dec-03 16:00N 45°35' W 122°31'3 7.0
2017-Dec-03 15:31N 45°34' W 122°26'4 7.1
2017-Dec-03 15:00N 45°34' W 122°21'3 6.7
2017-Dec-03 14:30N 45°33' W 122°17'4 7.0
2017-Dec-03 13:58N 45°34' W 122°12'3 6.5
2017-Dec-03 13:30N 45°35' W 122°07'4 6.8
2017-Dec-03 12:59N 45°36' W 122°03'  
2017-Dec-01 04:55N 45°37' W 122°00'2 4.4
2017-Dec-01 04:30N 45°36' W 122°03'3 5.7
2017-Dec-01 04:00N 45°35' W 122°06'2 4.3
2017-Dec-01 03:30N 45°35' W 122°10'2 3.3
2017-Dec-01 03:00N 45°34' W 122°12'3 6.5
2017-Dec-01 02:30N 45°33' W 122°16'3 6.2
2017-Dec-01 01:57N 45°34' W 122°21'2 5.2
2017-Dec-01 01:29N 45°34' W 122°24'3 5.8
2017-Dec-01 00:56N 45°35' W 122°28'3 6.1
2017-Dec-01 00:31N 45°35' W 122°32'3 6.4
2017-Dec-01 00:01N 45°36' W 122°36'3 6.6
2017-Nov-30 23:30N 45°37' W 122°41'3 5.8
2017-Nov-30 23:00N 45°39' W 122°44'1 2.1
2017-Nov-30 22:30N 45°40' W 122°45'1 1.4
2017-Nov-30 22:00N 45°39' W 122°45'0 0.8
2017-Nov-30 21:30N 45°39' W 122°44'0 0.0
2017-Nov-30 21:00N 45°39' W 122°44'0 0.0
2017-Nov-30 20:30N 45°39' W 122°44'0 0.0
2017-Nov-30 20:01N 45°39' W 122°44'0 0.0
2017-Nov-30 19:30N 45°39' W 122°44'0 0.0
2017-Nov-30 19:01N 45°39' W 122°44'0 0.0
2017-Nov-30 18:30N 45°39' W 122°44'0 0.0
2017-Nov-30 18:00N 45°39' W 122°44'0 0.0
2017-Nov-30 17:30N 45°39' W 122°44'0 0.0
2017-Nov-30 17:00N 45°39' W 122°44'0 0.0
2017-Nov-30 16:29N 45°39' W 122°44'0 0.0
2017-Nov-30 16:00N 45°39' W 122°44'1 1.2
2017-Nov-30 15:30N 45°39' W 122°45'1 1.0
2017-Nov-30 15:00N 45°39' W 122°45'0 0.4
2017-Nov-30 14:31N 45°39' W 122°45'0 0.8
2017-Nov-30 14:00N 45°39' W 122°45'1 1.5
2017-Nov-30 13:30N 45°39' W 122°44'4 7.4
2017-Nov-30 13:00N 45°37' W 122°40'4 7.6
2017-Nov-30 12:30N 45°36' W 122°35'4 7.7
2017-Nov-30 12:00N 45°35' W 122°29'4 7.2
2017-Nov-30 11:30N 45°34' W 122°24'4 7.0
2017-Nov-30 11:00N 45°33' W 122°19'4 7.3
2017-Nov-30 10:30N 45°33' W 122°14'5 7.4
2017-Nov-30 09:47N 45°35' W 122°07'3 7.5
2017-Nov-30 09:20N 45°36' W 122°03'  
Track history (hours):
 
Tides and Currents Weather Stations Pressure Air Temp Water Temp Dewpoint Dewpoint Depression Visibility Wind Speed Wind Dir Waves Ship Positions

Sundial

Owner: Tidewater barge Lines Inc., Vancouver, WA. More information available from US FCC via Universal Licensing System and Coast Guard Vessel Documentation Center.

Last reported at 2017-Dec-09 21:09 UTC. Time now 2017-Dec-14 06:23 UTC.
Position N 45°37' W 122°01'.

Length 31 m; draft 3.5 m.

Type: Towing. MMSI: 367047180.

Date/timePositionNaut miles runAvg speedWind from/ knotsBaromVisibWave heightAir tempDewpointWater temp
2017-Dec-09 21:09N 45°37' W 122°01'1 3.2
2017-Dec-09 20:57N 45°37' W 122°02'3 6.3
2017-Dec-09 20:30N 45°35' W 122°05'3 5.9
2017-Dec-09 20:00N 45°35' W 122°09'3 5.8
2017-Dec-09 19:31N 45°34' W 122°13'3 5.6
2017-Dec-09 18:58N 45°33' W 122°17'2 5.2
2017-Dec-09 18:31N 45°33' W 122°20'2 4.9
2017-Dec-09 18:00N 45°34' W 122°24'2 4.3
2017-Dec-09 17:30N 45°34' W 122°26'2 4.5
2017-Dec-09 17:01N 45°35' W 122°29'3 5.7
2017-Dec-09 16:31N 45°36' W 122°33'3 6.0
2017-Dec-09 16:00N 45°36' W 122°37'3 6.1
2017-Dec-09 15:30N 45°38' W 122°41'3 5.6
2017-Dec-09 15:00N 45°39' W 122°45'0 0.5
2017-Dec-09 14:26N 45°39' W 122°44'0 0.0
2017-Dec-09 13:54N 45°39' W 122°44'0 0.0
2017-Dec-09 13:30N 45°39' W 122°44'1 1.9
2017-Dec-09 13:00N 45°38' W 122°43'0 0.9
2017-Dec-09 12:30N 45°38' W 122°43'3 6.0
2017-Dec-09 12:00N 45°37' W 122°39'4 7.5
2017-Dec-09 11:31N 45°36' W 122°34'4 7.4
2017-Dec-09 11:01N 45°35' W 122°29'4 7.0
2017-Dec-09 10:30N 45°34' W 122°24'4 7.2
2017-Dec-09 10:00N 45°33' W 122°19'4 7.2
2017-Dec-09 09:29N 45°33' W 122°14'3 7.2
2017-Dec-09 09:01N 45°35' W 122°09'3 6.8
2017-Dec-09 08:30N 45°36' W 122°05'  
2017-Dec-04 10:28N 45°35' W 122°28'2 5.4
2017-Dec-04 10:01N 45°35' W 122°31'3 5.4
2017-Dec-04 09:30N 45°36' W 122°35'3 5.6
2017-Dec-04 09:01N 45°37' W 122°39'3 5.6
2017-Dec-04 08:31N 45°38' W 122°42'2 3.5
2017-Dec-04 07:58N 45°39' W 122°45'1 1.7
2017-Dec-04 07:30N 45°39' W 122°46'1 1.7
2017-Dec-04 07:00N 45°38' W 122°46'0 0.0
2017-Dec-04 06:30N 45°38' W 122°46'1 2.9
2017-Dec-04 06:00N 45°39' W 122°44'0 0.0
2017-Dec-04 05:31N 45°39' W 122°44'0 0.0
2017-Dec-04 04:57N 45°39' W 122°44'0 0.0
2017-Dec-04 04:30N 45°39' W 122°44'0 0.0
2017-Dec-04 04:00N 45°39' W 122°44'0 0.0
2017-Dec-04 03:31N 45°39' W 122°44'0 0.0
2017-Dec-04 03:00N 45°39' W 122°44'0 0.0
2017-Dec-04 02:30N 45°39' W 122°44'0 0.0
2017-Dec-04 02:00N 45°39' W 122°44'0 0.0
2017-Dec-04 01:31N 45°39' W 122°44'0 0.0
2017-Dec-04 01:00N 45°39' W 122°44'0 0.4
2017-Dec-04 00:30N 45°39' W 122°45'0 0.8
2017-Dec-04 00:00N 45°39' W 122°45'1 2.2
2017-Dec-03 23:30N 45°39' W 122°46'0 0.1
2017-Dec-03 23:00N 45°38' W 122°46'0 0.1
2017-Dec-03 22:28N 45°38' W 122°46'0 0.0
2017-Dec-03 22:00N 45°38' W 122°46'1 1.1
2017-Dec-03 21:30N 45°39' W 122°46'1 2.4
2017-Dec-03 21:00N 45°39' W 122°44'0 0.0
2017-Dec-03 20:30N 45°39' W 122°44'0 0.0
2017-Dec-03 20:00N 45°39' W 122°44'0 0.0
2017-Dec-03 19:30N 45°39' W 122°44'0 0.0
2017-Dec-03 19:00N 45°39' W 122°44'1 1.9
2017-Dec-03 18:31N 45°39' W 122°45'0 0.1
2017-Dec-03 18:01N 45°39' W 122°45'1 2.3
2017-Dec-03 17:30N 45°39' W 122°44'3 6.9
2017-Dec-03 17:00N 45°37' W 122°40'3 6.2
2017-Dec-03 16:30N 45°36' W 122°36'4 7.1
2017-Dec-03 16:00N 45°35' W 122°31'3 7.0
2017-Dec-03 15:31N 45°34' W 122°26'4 7.1
2017-Dec-03 15:00N 45°34' W 122°21'3 6.7
2017-Dec-03 14:30N 45°33' W 122°17'4 7.0
2017-Dec-03 13:58N 45°34' W 122°12'3 6.5
2017-Dec-03 13:30N 45°35' W 122°07'4 6.8
2017-Dec-03 12:59N 45°36' W 122°03'  
2017-Dec-01 04:55N 45°37' W 122°00'2 4.4
2017-Dec-01 04:30N 45°36' W 122°03'3 5.7
2017-Dec-01 04:00N 45°35' W 122°06'2 4.3
2017-Dec-01 03:30N 45°35' W 122°10'2 3.3
2017-Dec-01 03:00N 45°34' W 122°12'3 6.5
2017-Dec-01 02:30N 45°33' W 122°16'3 6.2
2017-Dec-01 01:57N 45°34' W 122°21'2 5.2
2017-Dec-01 01:29N 45°34' W 122°24'3 5.8
2017-Dec-01 00:56N 45°35' W 122°28'3 6.1
2017-Dec-01 00:31N 45°35' W 122°32'3 6.4
2017-Dec-01 00:01N 45°36' W 122°36'3 6.6
2017-Nov-30 23:30N 45°37' W 122°41'3 5.8
2017-Nov-30 23:00N 45°39' W 122°44'1 2.1
2017-Nov-30 22:30N 45°40' W 122°45'1 1.4
2017-Nov-30 22:00N 45°39' W 122°45'0 0.8
2017-Nov-30 21:30N 45°39' W 122°44'0 0.0
2017-Nov-30 21:00N 45°39' W 122°44'0 0.0
2017-Nov-30 20:30N 45°39' W 122°44'0 0.0
2017-Nov-30 20:01N 45°39' W 122°44'0 0.0
2017-Nov-30 19:30N 45°39' W 122°44'0 0.0
2017-Nov-30 19:01N 45°39' W 122°44'0 0.0
2017-Nov-30 18:30N 45°39' W 122°44'0 0.0
2017-Nov-30 18:00N 45°39' W 122°44'0 0.0
2017-Nov-30 17:30N 45°39' W 122°44'0 0.0
2017-Nov-30 17:00N 45°39' W 122°44'0 0.0
2017-Nov-30 16:29N 45°39' W 122°44'0 0.0
2017-Nov-30 16:00N 45°39' W 122°44'1 1.2
2017-Nov-30 15:30N 45°39' W 122°45'1 1.0
2017-Nov-30 15:00N 45°39' W 122°45'0 0.4
2017-Nov-30 14:31N 45°39' W 122°45'0 0.8
2017-Nov-30 14:00N 45°39' W 122°45'1 1.5
2017-Nov-30 13:30N 45°39' W 122°44'4 7.4
2017-Nov-30 13:00N 45°37' W 122°40'4 7.6
2017-Nov-30 12:30N 45°36' W 122°35'4 7.7
2017-Nov-30 12:00N 45°35' W 122°29'4 7.2
2017-Nov-30 11:30N 45°34' W 122°24'4 7.0
2017-Nov-30 11:00N 45°33' W 122°19'4 7.3
2017-Nov-30 10:30N 45°33' W 122°14'5 7.4
2017-Nov-30 09:47N 45°35' W 122°07'3 7.5
2017-Nov-30 09:20N 45°36' W 122°03'  

Dump ship's entire track history